sensor_id;sensor_type;location;lat;lon;timestamp;temperature;humidity
84173;DHT22;74302;40.122;18.310;2023-11-21T00:02:02;16.70;69.80
84173;DHT22;74302;40.122;18.310;2023-11-21T00:04:33;16.50;69.50
84173;DHT22;74302;40.122;18.310;2023-11-21T00:07:03;16.40;69.00
84173;DHT22;74302;40.122;18.310;2023-11-21T00:09:34;16.30;68.80
84173;DHT22;74302;40.122;18.310;2023-11-21T00:13:28;16.30;68.90
84173;DHT22;74302;40.122;18.310;2023-11-21T00:17:20;16.20;69.10
84173;DHT22;74302;40.122;18.310;2023-11-21T00:20:50;16.20;70.00
84173;DHT22;74302;40.122;18.310;2023-11-21T00:23:20;16.20;69.60
84173;DHT22;74302;40.122;18.310;2023-11-21T00:25:49;16.10;69.50
84173;DHT22;74302;40.122;18.310;2023-11-21T00:28:18;16.10;69.50
84173;DHT22;74302;40.122;18.310;2023-11-21T00:30:48;16.10;69.40
84173;DHT22;74302;40.122;18.310;2023-11-21T00:33:17;16.10;69.60
84173;DHT22;74302;40.122;18.310;2023-11-21T00:35:47;16.20;69.50
84173;DHT22;74302;40.122;18.310;2023-11-21T00:38:18;16.20;69.00
84173;DHT22;74302;40.122;18.310;2023-11-21T00:40:47;16.30;68.30
84173;DHT22;74302;40.122;18.310;2023-11-21T00:43:41;16.30;68.20
84173;DHT22;74302;40.122;18.310;2023-11-21T00:47:01;16.20;68.80
84173;DHT22;74302;40.122;18.310;2023-11-21T00:50:17;16.20;68.90
84173;DHT22;74302;40.122;18.310;2023-11-21T00:52:47;16.20;68.40
84173;DHT22;74302;40.122;18.310;2023-11-21T00:55:17;16.20;68.80
84173;DHT22;74302;40.122;18.310;2023-11-21T00:57:46;16.30;68.10
84173;DHT22;74302;40.122;18.310;2023-11-21T01:00:17;16.30;68.00
84173;DHT22;74302;40.122;18.310;2023-11-21T01:02:46;16.50;67.30
84173;DHT22;74302;40.122;18.310;2023-11-21T01:05:17;16.20;67.70
84173;DHT22;74302;40.122;18.310;2023-11-21T01:07:47;16.20;68.20
84173;DHT22;74302;40.122;18.310;2023-11-21T01:10:19;16.10;68.40
84173;DHT22;74302;40.122;18.310;2023-11-21T01:12:56;16.20;67.80
84173;DHT22;74302;40.122;18.310;2023-11-21T01:15:55;16.50;67.20
84173;DHT22;74302;40.122;18.310;2023-11-21T01:19:23;16.30;68.70
84173;DHT22;74302;40.122;18.310;2023-11-21T01:22:03;16.20;69.20
84173;DHT22;74302;40.122;18.310;2023-11-21T01:24:33;16.10;68.80
84173;DHT22;74302;40.122;18.310;2023-11-21T01:27:03;16.20;67.90
84173;DHT22;74302;40.122;18.310;2023-11-21T01:29:33;16.10;68.70
84173;DHT22;74302;40.122;18.310;2023-11-21T01:32:03;16.10;68.90
84173;DHT22;74302;40.122;18.310;2023-11-21T01:34:32;16.10;68.90
84173;DHT22;74302;40.122;18.310;2023-11-21T01:37:02;16.20;68.00
84173;DHT22;74302;40.122;18.310;2023-11-21T01:39:33;16.20;68.10
84173;DHT22;74302;40.122;18.310;2023-11-21T01:42:04;16.50;67.30
84173;DHT22;74302;40.122;18.310;2023-11-21T01:44:54;16.30;68.00
84173;DHT22;74302;40.122;18.310;2023-11-21T01:48:51;16.20;68.60
84173;DHT22;74302;40.122;18.310;2023-11-21T01:52:16;15.90;68.60
84173;DHT22;74302;40.122;18.310;2023-11-21T01:54:47;16.10;68.40
84173;DHT22;74302;40.122;18.310;2023-11-21T01:57:19;16.20;68.80
84173;DHT22;74302;40.122;18.310;2023-11-21T01:59:49;16.00;68.60
84173;DHT22;74302;40.122;18.310;2023-11-21T02:02:19;16.10;68.90
84173;DHT22;74302;40.122;18.310;2023-11-21T02:04:48;16.10;69.20
84173;DHT22;74302;40.122;18.310;2023-11-21T02:07:18;16.00;69.90
84173;DHT22;74302;40.122;18.310;2023-11-21T02:09:51;16.20;68.60
84173;DHT22;74302;40.122;18.310;2023-11-21T02:12:22;16.20;68.30
84173;DHT22;74302;40.122;18.310;2023-11-21T02:15:15;16.40;68.00
84173;DHT22;74302;40.122;18.310;2023-11-21T02:19:29;16.20;68.50
84173;DHT22;74302;40.122;18.310;2023-11-21T02:23:10;16.20;68.30
84173;DHT22;74302;40.122;18.310;2023-11-21T02:25:40;15.90;68.70
84173;DHT22;74302;40.122;18.310;2023-11-21T02:28:10;15.90;68.80
84173;DHT22;74302;40.122;18.310;2023-11-21T02:30:42;16.00;69.00
84173;DHT22;74302;40.122;18.310;2023-11-21T02:33:12;16.10;69.00
84173;DHT22;74302;40.122;18.310;2023-11-21T02:35:41;16.20;68.70
84173;DHT22;74302;40.122;18.310;2023-11-21T02:38:12;16.20;68.40
84173;DHT22;74302;40.122;18.310;2023-11-21T02:40:42;16.40;67.80
84173;DHT22;74302;40.122;18.310;2023-11-21T02:43:11;16.20;68.60
84173;DHT22;74302;40.122;18.310;2023-11-21T02:46:01;16.20;68.40
84173;DHT22;74302;40.122;18.310;2023-11-21T02:49:50;16.20;68.10
84173;DHT22;74302;40.122;18.310;2023-11-21T02:52:44;16.10;73.80
84173;DHT22;74302;40.122;18.310;2023-11-21T02:56:00;16.30;74.00
84173;DHT22;74302;40.122;18.310;2023-11-21T02:58:30;16.20;74.40
84173;DHT22;74302;40.122;18.310;2023-11-21T03:00:59;16.40;74.50
84173;DHT22;74302;40.122;18.310;2023-11-21T03:03:29;16.20;75.70
84173;DHT22;74302;40.122;18.310;2023-11-21T03:05:59;16.40;74.70
84173;DHT22;74302;40.122;18.310;2023-11-21T03:08:28;16.60;74.80
84173;DHT22;74302;40.122;18.310;2023-11-21T03:10:57;16.70;75.80
84173;DHT22;74302;40.122;18.310;2023-11-21T03:13:28;16.90;75.70
84173;DHT22;74302;40.122;18.310;2023-11-21T03:15:58;17.00;75.40
84173;DHT22;74302;40.122;18.310;2023-11-21T03:18:27;16.90;75.20
84173;DHT22;74302;40.122;18.310;2023-11-21T03:20:57;16.70;75.30
84173;DHT22;74302;40.122;18.310;2023-11-21T03:23:26;17.00;74.30
84173;DHT22;74302;40.122;18.310;2023-11-21T03:25:56;17.00;74.40
84173;DHT22;74302;40.122;18.310;2023-11-21T03:28:26;16.90;75.30
84173;DHT22;74302;40.122;18.310;2023-11-21T03:30:57;16.90;75.80
84173;DHT22;74302;40.122;18.310;2023-11-21T03:33:26;17.20;74.90
84173;DHT22;74302;40.122;18.310;2023-11-21T03:35:55;17.10;75.80
84173;DHT22;74302;40.122;18.310;2023-11-21T03:38:25;17.20;75.60
84173;DHT22;74302;40.122;18.310;2023-11-21T03:40:54;17.20;76.60
84173;DHT22;74302;40.122;18.310;2023-11-21T03:43:23;17.10;77.30
84173;DHT22;74302;40.122;18.310;2023-11-21T03:45:53;17.00;76.50
84173;DHT22;74302;40.122;18.310;2023-11-21T03:48:23;16.80;77.30
84173;DHT22;74302;40.122;18.310;2023-11-21T03:50:53;17.00;77.30
84173;DHT22;74302;40.122;18.310;2023-11-21T03:53:42;17.00;77.70
84173;DHT22;74302;40.122;18.310;2023-11-21T03:57:15;17.20;77.50
84173;DHT22;74302;40.122;18.310;2023-11-21T04:01:00;17.20;77.10
84173;DHT22;74302;40.122;18.310;2023-11-21T04:04:11;17.20;77.30
84173;DHT22;74302;40.122;18.310;2023-11-21T04:06:40;17.30;76.80
84173;DHT22;74302;40.122;18.310;2023-11-21T04:09:10;17.30;76.80
84173;DHT22;74302;40.122;18.310;2023-11-21T04:11:40;17.40;76.60
84173;DHT22;74302;40.122;18.310;2023-11-21T04:14:10;17.30;76.40
84173;DHT22;74302;40.122;18.310;2023-11-21T04:16:40;17.20;77.10
84173;DHT22;74302;40.122;18.310;2023-11-21T04:19:11;17.20;76.90
84173;DHT22;74302;40.122;18.310;2023-11-21T04:21:42;17.30;76.90
84173;DHT22;74302;40.122;18.310;2023-11-21T04:24:27;17.40;76.40
84173;DHT22;74302;40.122;18.310;2023-11-21T04:28:11;17.50;76.50
84173;DHT22;74302;40.122;18.310;2023-11-21T04:31:25;17.40;76.30
84173;DHT22;74302;40.122;18.310;2023-11-21T04:33:54;17.40;76.50
84173;DHT22;74302;40.122;18.310;2023-11-21T04:36:24;17.40;76.30
84173;DHT22;74302;40.122;18.310;2023-11-21T04:38:54;17.40;76.50
84173;DHT22;74302;40.122;18.310;2023-11-21T04:41:23;17.40;76.40
84173;DHT22;74302;40.122;18.310;2023-11-21T04:43:52;17.40;76.20
84173;DHT22;74302;40.122;18.310;2023-11-21T04:46:22;17.50;75.90
84173;DHT22;74302;40.122;18.310;2023-11-21T04:48:51;17.50;75.90
84173;DHT22;74302;40.122;18.310;2023-11-21T04:51:21;17.30;76.20
84173;DHT22;74302;40.122;18.310;2023-11-21T04:54:26;17.20;76.80
84173;DHT22;74302;40.122;18.310;2023-11-21T04:58:08;17.30;76.30
84173;DHT22;74302;40.122;18.310;2023-11-21T05:01:25;17.30;76.30
84173;DHT22;74302;40.122;18.310;2023-11-21T05:03:55;17.20;76.50
84173;DHT22;74302;40.122;18.310;2023-11-21T05:06:24;17.30;76.60
84173;DHT22;74302;40.122;18.310;2023-11-21T05:08:54;17.20;76.70
84173;DHT22;74302;40.122;18.310;2023-11-21T05:11:25;17.20;76.60
84173;DHT22;74302;40.122;18.310;2023-11-21T05:13:54;17.20;76.60
84173;DHT22;74302;40.122;18.310;2023-11-21T05:16:26;16.90;77.60
84173;DHT22;74302;40.122;18.310;2023-11-21T05:18:56;17.20;76.90
84173;DHT22;74302;40.122;18.310;2023-11-21T05:21:28;16.90;77.50
84173;DHT22;74302;40.122;18.310;2023-11-21T05:24:26;17.20;76.30
84173;DHT22;74302;40.122;18.310;2023-11-21T05:28:56;17.20;76.00
84173;DHT22;74302;40.122;18.310;2023-11-21T05:32:41;16.80;77.40
84173;DHT22;74302;40.122;18.310;2023-11-21T05:35:11;16.80;77.70
84173;DHT22;74302;40.122;18.310;2023-11-21T05:37:43;16.90;77.80
84173;DHT22;74302;40.122;18.310;2023-11-21T05:40:13;16.90;77.80
84173;DHT22;74302;40.122;18.310;2023-11-21T05:42:43;17.10;76.90
84173;DHT22;74302;40.122;18.310;2023-11-21T05:45:14;17.30;76.10
84173;DHT22;74302;40.122;18.310;2023-11-21T05:47:45;17.10;76.30
84173;DHT22;74302;40.122;18.310;2023-11-21T05:50:16;17.20;76.40
84173;DHT22;74302;40.122;18.310;2023-11-21T05:52:46;17.30;76.30
84173;DHT22;74302;40.122;18.310;2023-11-21T05:55:34;17.20;76.50
84173;DHT22;74302;40.122;18.310;2023-11-21T05:59:38;17.20;75.70
84173;DHT22;74302;40.122;18.310;2023-11-21T06:03:35;17.20;75.50
84173;DHT22;74302;40.122;18.310;2023-11-21T06:06:05;17.40;75.80
84173;DHT22;74302;40.122;18.310;2023-11-21T06:08:34;17.60;75.60
84173;DHT22;74302;40.122;18.310;2023-11-21T06:11:04;17.70;75.20
84173;DHT22;74302;40.122;18.310;2023-11-21T06:13:33;17.70;75.40
84173;DHT22;74302;40.122;18.310;2023-11-21T06:16:03;17.70;75.20
84173;DHT22;74302;40.122;18.310;2023-11-21T06:18:32;17.70;75.50
84173;DHT22;74302;40.122;18.310;2023-11-21T06:21:04;17.60;76.40
84173;DHT22;74302;40.122;18.310;2023-11-21T06:23:34;17.70;76.40
84173;DHT22;74302;40.122;18.310;2023-11-21T06:26:03;17.80;76.80
84173;DHT22;74302;40.122;18.310;2023-11-21T06:28:45;18.00;76.40
84173;DHT22;74302;40.122;18.310;2023-11-21T06:32:17;17.90;76.70
84173;DHT22;74302;40.122;18.310;2023-11-21T06:35:03;17.70;78.10
84173;DHT22;74302;40.122;18.310;2023-11-21T06:38:11;17.40;79.70
84173;DHT22;74302;40.122;18.310;2023-11-21T06:40:41;17.40;80.40
84173;DHT22;74302;40.122;18.310;2023-11-21T06:43:10;17.80;80.70
84173;DHT22;74302;40.122;18.310;2023-11-21T06:45:39;18.30;79.10
84173;DHT22;74302;40.122;18.310;2023-11-21T06:48:08;18.70;77.90
84173;DHT22;74302;40.122;18.310;2023-11-21T06:50:37;19.20;76.40
84173;DHT22;74302;40.122;18.310;2023-11-21T06:53:07;19.30;75.80
84173;DHT22;74302;40.122;18.310;2023-11-21T06:55:39;19.40;75.30
84173;DHT22;74302;40.122;18.310;2023-11-21T06:58:08;19.60;75.60
84173;DHT22;74302;40.122;18.310;2023-11-21T07:00:37;19.90;75.00
84173;DHT22;74302;40.122;18.310;2023-11-21T07:03:06;20.30;74.00
84173;DHT22;74302;40.122;18.310;2023-11-21T07:05:35;20.90;72.80
84173;DHT22;74302;40.122;18.310;2023-11-21T07:08:05;21.20;70.80
84173;DHT22;74302;40.122;18.310;2023-11-21T07:10:35;21.30;70.50
84173;DHT22;74302;40.122;18.310;2023-11-21T07:13:07;21.00;71.20
84173;DHT22;74302;40.122;18.310;2023-11-21T07:15:40;20.50;72.80
84173;DHT22;74302;40.122;18.310;2023-11-21T07:18:09;20.20;73.90
84173;DHT22;74302;40.122;18.310;2023-11-21T07:20:39;20.10;74.30
84173;DHT22;74302;40.122;18.310;2023-11-21T07:23:08;19.70;75.50
84173;DHT22;74302;40.122;18.310;2023-11-21T07:25:38;19.70;75.50
84173;DHT22;74302;40.122;18.310;2023-11-21T07:28:11;19.50;76.40
84173;DHT22;74302;40.122;18.310;2023-11-21T07:30:40;19.20;77.20
84173;DHT22;74302;40.122;18.310;2023-11-21T07:33:10;19.10;78.10
84173;DHT22;74302;40.122;18.310;2023-11-21T07:35:40;19.00;78.40
84173;DHT22;74302;40.122;18.310;2023-11-21T07:38:09;18.90;79.00
84173;DHT22;74302;40.122;18.310;2023-11-21T07:40:38;18.90;79.00
84173;DHT22;74302;40.122;18.310;2023-11-21T07:43:07;18.80;79.30
84173;DHT22;74302;40.122;18.310;2023-11-21T07:45:39;18.80;79.50
84173;DHT22;74302;40.122;18.310;2023-11-21T07:48:10;18.80;79.80
84173;DHT22;74302;40.122;18.310;2023-11-21T07:50:39;18.90;80.00
84173;DHT22;74302;40.122;18.310;2023-11-21T07:53:08;19.10;79.30
84173;DHT22;74302;40.122;18.310;2023-11-21T07:55:38;19.20;79.60
84173;DHT22;74302;40.122;18.310;2023-11-21T07:58:07;19.50;78.50
84173;DHT22;74302;40.122;18.310;2023-11-21T08:00:36;19.60;78.00
84173;DHT22;74302;40.122;18.310;2023-11-21T08:03:08;19.40;78.60
84173;DHT22;74302;40.122;18.310;2023-11-21T08:05:39;19.30;78.50
84173;DHT22;74302;40.122;18.310;2023-11-21T08:08:08;19.20;78.60
84173;DHT22;74302;40.122;18.310;2023-11-21T08:10:37;19.10;79.80
84173;DHT22;74302;40.122;18.310;2023-11-21T08:13:07;19.20;79.30
84173;DHT22;74302;40.122;18.310;2023-11-21T08:15:37;19.30;78.80
84173;DHT22;74302;40.122;18.310;2023-11-21T08:18:07;19.30;79.00
84173;DHT22;74302;40.122;18.310;2023-11-21T08:20:36;19.30;78.70
84173;DHT22;74302;40.122;18.310;2023-11-21T08:23:07;19.20;79.30
84173;DHT22;74302;40.122;18.310;2023-11-21T08:25:36;19.40;79.50
84173;DHT22;74302;40.122;18.310;2023-11-21T08:28:06;19.90;77.70
84173;DHT22;74302;40.122;18.310;2023-11-21T08:30:35;20.70;75.60
84173;DHT22;74302;40.122;18.310;2023-11-21T08:33:04;20.90;74.80
84173;DHT22;74302;40.122;18.310;2023-11-21T08:35:36;20.90;74.50
84173;DHT22;74302;40.122;18.310;2023-11-21T08:38:06;21.10;73.90
84173;DHT22;74302;40.122;18.310;2023-11-21T08:40:35;21.10;73.80
84173;DHT22;74302;40.122;18.310;2023-11-21T08:43:04;20.90;74.20
84173;DHT22;74302;40.122;18.310;2023-11-21T08:45:34;20.80;74.70
84173;DHT22;74302;40.122;18.310;2023-11-21T08:48:04;20.70;75.00
84173;DHT22;74302;40.122;18.310;2023-11-21T08:50:37;20.70;75.10
84173;DHT22;74302;40.122;18.310;2023-11-21T08:53:07;20.50;75.60
84173;DHT22;74302;40.122;18.310;2023-11-21T08:55:39;20.70;75.30
84173;DHT22;74302;40.122;18.310;2023-11-21T08:58:08;20.70;75.00
84173;DHT22;74302;40.122;18.310;2023-11-21T09:00:37;20.50;75.60
84173;DHT22;74302;40.122;18.310;2023-11-21T09:03:09;20.10;76.30
84173;DHT22;74302;40.122;18.310;2023-11-21T09:05:40;20.20;76.50
84173;DHT22;74302;40.122;18.310;2023-11-21T09:08:09;20.10;76.40
84173;DHT22;74302;40.122;18.310;2023-11-21T09:10:38;20.00;76.00
84173;DHT22;74302;40.122;18.310;2023-11-21T09:13:08;20.00;76.10
84173;DHT22;74302;40.122;18.310;2023-11-21T09:15:38;19.90;76.20
84173;DHT22;74302;40.122;18.310;2023-11-21T09:18:08;19.90;76.20
84173;DHT22;74302;40.122;18.310;2023-11-21T09:20:39;20.20;75.70
84173;DHT22;74302;40.122;18.310;2023-11-21T09:23:09;20.50;74.90
84173;DHT22;74302;40.122;18.310;2023-11-21T09:25:38;20.30;74.60
84173;DHT22;74302;40.122;18.310;2023-11-21T09:28:07;20.30;73.90
84173;DHT22;74302;40.122;18.310;2023-11-21T09:30:37;20.50;73.60
84173;DHT22;74302;40.122;18.310;2023-11-21T09:33:06;20.60;73.30
84173;DHT22;74302;40.122;18.310;2023-11-21T09:35:39;20.80;73.50
84173;DHT22;74302;40.122;18.310;2023-11-21T09:38:10;21.00;72.20
84173;DHT22;74302;40.122;18.310;2023-11-21T09:40:39;21.00;71.90
84173;DHT22;74302;40.122;18.310;2023-11-21T09:43:15;21.20;71.60
84173;DHT22;74302;40.122;18.310;2023-11-21T09:45:46;21.00;71.50
84173;DHT22;74302;40.122;18.310;2023-11-21T09:48:18;21.10;71.20
84173;DHT22;74302;40.122;18.310;2023-11-21T09:50:51;21.00;71.80
84173;DHT22;74302;40.122;18.310;2023-11-21T09:53:22;20.80;71.30
84173;DHT22;74302;40.122;18.310;2023-11-21T09:55:53;20.90;71.10
84173;DHT22;74302;40.122;18.310;2023-11-21T09:58:22;21.20;70.70
84173;DHT22;74302;40.122;18.310;2023-11-21T10:00:53;21.50;69.40
84173;DHT22;74302;40.122;18.310;2023-11-21T10:03:24;21.70;69.70
84173;DHT22;74302;40.122;18.310;2023-11-21T10:05:56;21.60;69.70
84173;DHT22;74302;40.122;18.310;2023-11-21T10:08:27;21.20;70.40
84173;DHT22;74302;40.122;18.310;2023-11-21T10:11:04;21.00;71.30
84173;DHT22;74302;40.122;18.310;2023-11-21T10:13:35;20.80;72.30
84173;DHT22;74302;40.122;18.310;2023-11-21T10:16:06;20.80;72.80
84173;DHT22;74302;40.122;18.310;2023-11-21T10:18:36;20.70;73.70
84173;DHT22;74302;40.122;18.310;2023-11-21T10:21:09;20.50;73.90
84173;DHT22;74302;40.122;18.310;2023-11-21T10:23:39;20.70;73.90
84173;DHT22;74302;40.122;18.310;2023-11-21T10:26:11;20.50;74.60
84173;DHT22;74302;40.122;18.310;2023-11-21T10:28:55;20.50;74.50
84173;DHT22;74302;40.122;18.310;2023-11-21T10:31:27;20.70;74.60
84173;DHT22;74302;40.122;18.310;2023-11-21T10:34:13;20.70;75.00
84173;DHT22;74302;40.122;18.310;2023-11-21T10:36:44;20.70;74.80
84173;DHT22;74302;40.122;18.310;2023-11-21T10:39:17;21.10;74.40
84173;DHT22;74302;40.122;18.310;2023-11-21T10:41:47;21.10;74.10
84173;DHT22;74302;40.122;18.310;2023-11-21T10:44:17;21.10;74.90
84173;DHT22;74302;40.122;18.310;2023-11-21T10:46:49;21.20;74.00
84173;DHT22;74302;40.122;18.310;2023-11-21T10:49:20;21.20;74.90
84173;DHT22;74302;40.122;18.310;2023-11-21T10:51:51;21.20;74.90
84173;DHT22;74302;40.122;18.310;2023-11-21T10:54:21;21.00;75.40
84173;DHT22;74302;40.122;18.310;2023-11-21T10:56:56;21.00;75.20
84173;DHT22;74302;40.122;18.310;2023-11-21T10:59:29;20.80;75.90
84173;DHT22;74302;40.122;18.310;2023-11-21T11:01:58;20.70;76.10
84173;DHT22;74302;40.122;18.310;2023-11-21T11:04:30;20.80;75.90
84173;DHT22;74302;40.122;18.310;2023-11-21T11:07:03;20.90;75.60
84173;DHT22;74302;40.122;18.310;2023-11-21T11:09:32;20.90;75.00
84173;DHT22;74302;40.122;18.310;2023-11-21T11:12:03;20.90;75.20
84173;DHT22;74302;40.122;18.310;2023-11-21T11:14:33;21.00;75.10
84173;DHT22;74302;40.122;18.310;2023-11-21T11:17:04;21.20;74.70
84173;DHT22;74302;40.122;18.310;2023-11-21T11:19:36;21.20;74.70
84173;DHT22;74302;40.122;18.310;2023-11-21T11:22:13;20.90;75.70
84173;DHT22;74302;40.122;18.310;2023-11-21T11:25:05;20.70;76.40
84173;DHT22;74302;40.122;18.310;2023-11-21T11:27:50;20.80;75.90
84173;DHT22;74302;40.122;18.310;2023-11-21T11:30:41;20.70;74.90
84173;DHT22;74302;40.122;18.310;2023-11-21T11:33:21;20.40;76.00
84173;DHT22;74302;40.122;18.310;2023-11-21T11:35:59;20.70;75.60
84173;DHT22;74302;40.122;18.310;2023-11-21T11:38:34;20.80;75.60
84173;DHT22;74302;40.122;18.310;2023-11-21T11:41:05;21.20;74.70
84173;DHT22;74302;40.122;18.310;2023-11-21T11:43:34;21.30;74.60
84173;DHT22;74302;40.122;18.310;2023-11-21T11:46:12;21.20;74.30
84173;DHT22;74302;40.122;18.310;2023-11-21T11:48:42;21.30;74.40
84173;DHT22;74302;40.122;18.310;2023-11-21T11:51:14;21.20;74.60
84173;DHT22;74302;40.122;18.310;2023-11-21T11:53:47;21.20;74.70
84173;DHT22;74302;40.122;18.310;2023-11-21T11:56:25;20.70;75.20
84173;DHT22;74302;40.122;18.310;2023-11-21T11:58:56;20.60;76.20
84173;DHT22;74302;40.122;18.310;2023-11-21T12:01:27;20.50;76.80
84173;DHT22;74302;40.122;18.310;2023-11-21T12:04:25;20.80;76.20
84173;DHT22;74302;40.122;18.310;2023-11-21T12:07:02;20.90;76.00
84173;DHT22;74302;40.122;18.310;2023-11-21T12:09:33;20.90;76.40
84173;DHT22;74302;40.122;18.310;2023-11-21T12:12:03;20.90;76.10
84173;DHT22;74302;40.122;18.310;2023-11-21T12:14:34;20.70;76.70
84173;DHT22;74302;40.122;18.310;2023-11-21T12:17:05;20.70;76.90
84173;DHT22;74302;40.122;18.310;2023-11-21T12:19:34;20.20;77.80
84173;DHT22;74302;40.122;18.310;2023-11-21T12:22:05;20.40;77.70
84173;DHT22;74302;40.122;18.310;2023-11-21T12:24:35;20.20;78.00
84173;DHT22;74302;40.122;18.310;2023-11-21T12:27:05;20.20;78.20
84173;DHT22;74302;40.122;18.310;2023-11-21T12:29:36;20.50;78.00
84173;DHT22;74302;40.122;18.310;2023-11-21T12:32:05;20.40;78.10
84173;DHT22;74302;40.122;18.310;2023-11-21T12:34:35;20.50;77.80
84173;DHT22;74302;40.122;18.310;2023-11-21T12:37:06;20.60;77.70
84173;DHT22;74302;40.122;18.310;2023-11-21T12:39:37;20.70;77.10
84173;DHT22;74302;40.122;18.310;2023-11-21T12:42:06;20.50;77.60
84173;DHT22;74302;40.122;18.310;2023-11-21T12:44:35;20.40;78.00
84173;DHT22;74302;40.122;18.310;2023-11-21T12:47:05;20.20;78.50
84173;DHT22;74302;40.122;18.310;2023-11-21T12:49:35;20.30;78.80
84173;DHT22;74302;40.122;18.310;2023-11-21T12:52:05;20.50;78.10
84173;DHT22;74302;40.122;18.310;2023-11-21T12:54:34;20.30;78.50
84173;DHT22;74302;40.122;18.310;2023-11-21T12:57:05;20.50;78.50
84173;DHT22;74302;40.122;18.310;2023-11-21T12:59:38;20.70;78.20
84173;DHT22;74302;40.122;18.310;2023-11-21T13:02:09;20.70;78.40
84173;DHT22;74302;40.122;18.310;2023-11-21T13:04:41;20.70;77.60
84173;DHT22;74302;40.122;18.310;2023-11-21T13:07:11;20.50;78.40
84173;DHT22;74302;40.122;18.310;2023-11-21T13:09:42;20.70;78.30
84173;DHT22;74302;40.122;18.310;2023-11-21T13:12:13;20.60;78.50
84173;DHT22;74302;40.122;18.310;2023-11-21T13:14:46;20.60;78.60
84173;DHT22;74302;40.122;18.310;2023-11-21T13:17:15;20.50;79.50
84173;DHT22;74302;40.122;18.310;2023-11-21T13:19:44;20.50;79.50
84173;DHT22;74302;40.122;18.310;2023-11-21T13:22:13;20.60;79.80
84173;DHT22;74302;40.122;18.310;2023-11-21T13:24:43;20.80;79.30
84173;DHT22;74302;40.122;18.310;2023-11-21T13:27:13;20.80;78.80
84173;DHT22;74302;40.122;18.310;2023-11-21T13:29:43;20.70;79.00
84173;DHT22;74302;40.122;18.310;2023-11-21T13:32:12;20.70;79.40
84173;DHT22;74302;40.122;18.310;2023-11-21T13:34:43;20.60;79.30
84173;DHT22;74302;40.122;18.310;2023-11-21T13:37:14;20.60;79.00
84173;DHT22;74302;40.122;18.310;2023-11-21T13:39:44;20.70;79.00
84173;DHT22;74302;40.122;18.310;2023-11-21T13:42:20;20.60;79.10
84173;DHT22;74302;40.122;18.310;2023-11-21T13:44:56;20.70;78.60
84173;DHT22;74302;40.122;18.310;2023-11-21T13:47:25;20.70;79.00
84173;DHT22;74302;40.122;18.310;2023-11-21T13:49:57;20.50;79.60
84173;DHT22;74302;40.122;18.310;2023-11-21T13:52:28;20.20;80.60
84173;DHT22;74302;40.122;18.310;2023-11-21T13:55:00;20.30;80.20
84173;DHT22;74302;40.122;18.310;2023-11-21T13:57:35;20.30;80.10
84173;DHT22;74302;40.122;18.310;2023-11-21T14:00:07;20.60;79.20
84173;DHT22;74302;40.122;18.310;2023-11-21T14:02:38;20.40;79.30
84173;DHT22;74302;40.122;18.310;2023-11-21T14:05:12;20.20;80.10
84173;DHT22;74302;40.122;18.310;2023-11-21T14:07:42;20.20;80.00
84173;DHT22;74302;40.122;18.310;2023-11-21T14:10:15;20.20;79.40
84173;DHT22;74302;40.122;18.310;2023-11-21T14:12:51;20.20;79.20
84173;DHT22;74302;40.122;18.310;2023-11-21T14:15:20;20.30;77.90
84173;DHT22;74302;40.122;18.310;2023-11-21T14:17:50;20.20;75.90
84173;DHT22;74302;40.122;18.310;2023-11-21T14:20:19;20.10;75.90
84173;DHT22;74302;40.122;18.310;2023-11-21T14:22:49;20.20;75.60
84173;DHT22;74302;40.122;18.310;2023-11-21T14:25:18;20.10;75.80
84173;DHT22;74302;40.122;18.310;2023-11-21T14:27:50;20.20;75.80
84173;DHT22;74302;40.122;18.310;2023-11-21T14:30:19;20.20;75.70
84173;DHT22;74302;40.122;18.310;2023-11-21T14:32:50;20.40;75.50
84173;DHT22;74302;40.122;18.310;2023-11-21T14:35:19;20.30;75.50
84173;DHT22;74302;40.122;18.310;2023-11-21T14:37:48;20.20;75.90
84173;DHT22;74302;40.122;18.310;2023-11-21T14:40:18;19.80;76.70
84173;DHT22;74302;40.122;18.310;2023-11-21T14:42:53;19.80;76.00
84173;DHT22;74302;40.122;18.310;2023-11-21T14:45:25;19.90;75.50
84173;DHT22;74302;40.122;18.310;2023-11-21T14:47:55;19.70;76.00
84173;DHT22;74302;40.122;18.310;2023-11-21T14:50:34;19.80;75.50
84173;DHT22;74302;40.122;18.310;2023-11-21T14:53:16;19.70;76.00
84173;DHT22;74302;40.122;18.310;2023-11-21T14:55:53;19.70;76.20
84173;DHT22;74302;40.122;18.310;2023-11-21T14:58:28;19.70;76.70
84173;DHT22;74302;40.122;18.310;2023-11-21T15:00:57;19.50;77.20
84173;DHT22;74302;40.122;18.310;2023-11-21T15:03:27;19.50;77.60
84173;DHT22;74302;40.122;18.310;2023-11-21T15:06:11;19.60;77.70
84173;DHT22;74302;40.122;18.310;2023-11-21T15:08:50;19.50;77.90
84173;DHT22;74302;40.122;18.310;2023-11-21T15:11:27;19.60;77.60
84173;DHT22;74302;40.122;18.310;2023-11-21T15:14:00;19.70;77.50
84173;DHT22;74302;40.122;18.310;2023-11-21T15:16:29;19.80;76.80
84173;DHT22;74302;40.122;18.310;2023-11-21T15:18:58;19.90;76.10
84173;DHT22;74302;40.122;18.310;2023-11-21T15:21:28;19.90;75.80
84173;DHT22;74302;40.122;18.310;2023-11-21T15:23:57;19.60;77.00
84173;DHT22;74302;40.122;18.310;2023-11-21T15:26:26;19.30;77.70
84173;DHT22;74302;40.122;18.310;2023-11-21T15:28:57;19.40;77.70
84173;DHT22;74302;40.122;18.310;2023-11-21T15:31:28;19.40;77.90
84173;DHT22;74302;40.122;18.310;2023-11-21T15:33:58;19.50;77.60
84173;DHT22;74302;40.122;18.310;2023-11-21T15:36:28;19.70;77.10
84173;DHT22;74302;40.122;18.310;2023-11-21T15:38:57;19.70;77.20
84173;DHT22;74302;40.122;18.310;2023-11-21T15:41:26;19.60;77.50
84173;DHT22;74302;40.122;18.310;2023-11-21T15:43:55;19.40;78.30
84173;DHT22;74302;40.122;18.310;2023-11-21T15:46:25;19.30;78.70
84173;DHT22;74302;40.122;18.310;2023-11-21T15:48:56;19.30;78.90
84173;DHT22;74302;40.122;18.310;2023-11-21T15:51:25;19.50;78.70
84173;DHT22;74302;40.122;18.310;2023-11-21T15:53:54;19.60;78.50
84173;DHT22;74302;40.122;18.310;2023-11-21T15:56:24;19.60;78.40
84173;DHT22;74302;40.122;18.310;2023-11-21T15:58:53;19.60;78.20
84173;DHT22;74302;40.122;18.310;2023-11-21T16:01:22;19.70;77.90
84173;DHT22;74302;40.122;18.310;2023-11-21T16:03:53;19.50;78.70
84173;DHT22;74302;40.122;18.310;2023-11-21T16:06:24;19.50;78.80
84173;DHT22;74302;40.122;18.310;2023-11-21T16:08:55;19.40;79.10
84173;DHT22;74302;40.122;18.310;2023-11-21T16:11:26;19.40;79.10